Time;durP1;ratioP1;P1;durP2;ratioP2;P2;SDS_P1;SDS_P2;PMS_P1;PMS_P2;Temp;Humidity;BMP_temperature;BMP_pressure;BME280_temperature;BME280_humidity;BME280_pressure;Samples;Min_cycle;Max_cycle;Signal;HPM_P1;HPM_P2
2021/08/13 00:00:35;;;;;;;10.13;6.50;;;;;;;;;;5064454;28;20439;-60
2021/08/13 00:03:00;;;;;;;9.02;6.90;;;;;;;;;;5065859;28;20025;-59
2021/08/13 00:05:26;;;;;;;9.25;6.82;;;;;;;;;;5068636;28;20123;-57
2021/08/13 00:07:51;;;;;;;9.30;6.47;;;;;;;;;;5072270;28;20028;-56
2021/08/13 00:10:16;;;;;;;9.07;6.63;;;;;;;;;;5070800;28;20024;-57
2021/08/13 00:12:42;;;;;;;9.10;6.63;;;;;;;;;;5067950;28;20035;-59
2021/08/13 00:15:08;;;;;;;8.65;6.78;;;;;;;;;;5067606;28;20024;-59
2021/08/13 00:17:34;;;;;;;8.55;6.20;;;;;;;;;;5068050;28;20040;-61
2021/08/13 00:19:59;;;;;;;10.18;6.55;;;;;;;;;;5076683;28;20027;-55
2021/08/13 00:22:25;;;;;;;10.75;6.93;;;;;;;;;;5087233;28;20494;-58
2021/08/13 00:24:51;;;;;;;11.00;6.35;;;;;;;;;;5051560;28;20441;-58
2021/08/13 00:27:16;;;;;;;10.73;7.32;;;;;;;;;;5047634;28;20029;-60
2021/08/13 00:29:42;;;;;;;9.00;6.90;;;;;;;;;;5070030;28;20451;-59
2021/08/13 00:32:07;;;;;;;10.18;6.80;;;;;;;;;;5057023;28;20525;-59
2021/08/13 00:34:32;;;;;;;9.95;6.60;;;;;;;;;;5064027;28;20595;-60
2021/08/13 00:36:58;;;;;;;9.82;6.40;;;;;;;;;;5071294;28;20024;-56
2021/08/13 00:39:23;;;;;;;9.13;6.18;;;;;;;;;;5068801;28;20078;-58
2021/08/13 00:41:49;;;;;;;11.80;6.78;;;;;;;;;;5062298;28;20033;-61
2021/08/13 00:44:14;;;;;;;11.85;7.20;;;;;;;;;;5060843;28;20064;-60
2021/08/13 00:46:40;;;;;;;9.52;6.32;;;;;;;;;;5066598;28;20119;-58
2021/08/13 00:49:05;;;;;;;10.32;6.85;;;;;;;;;;5067024;28;20048;-59
2021/08/13 00:51:31;;;;;;;9.50;6.93;;;;;;;;;;5066574;28;20115;-58
2021/08/13 00:53:56;;;;;;;10.13;6.85;;;;;;;;;;5054859;28;20069;-60
2021/08/13 00:56:22;;;;;;;10.20;6.90;;;;;;;;;;5064541;28;20024;-58
2021/08/13 00:58:48;;;;;;;9.73;6.97;;;;;;;;;;5066414;28;20031;-53
2021/08/13 01:01:13;;;;;;;14.85;7.18;;;;;;;;;;5066576;28;20028;-59
2021/08/13 01:03:39;;;;;;;10.02;6.45;;;;;;;;;;5066694;28;20024;-59
2021/08/13 01:06:17;;;;;;;10.25;7.15;;;;;;;;;;5066789;28;20047;-59
2021/08/13 01:08:44;;;;;;;11.43;7.35;;;;;;;;;;5066572;28;20020;-59
2021/08/13 01:11:34;;;;;;;11.43;6.72;;;;;;;;;;5064968;28;20043;-61
2021/08/13 01:14:05;;;;;;;11.82;7.18;;;;;;;;;;5049104;28;20402;-58
2021/08/13 01:16:30;;;;;;;8.77;6.57;;;;;;;;;;5046359;28;20078;-59
2021/08/13 01:19:08;;;;;;;8.18;6.35;;;;;;;;;;5058170;28;20021;-60
2021/08/13 01:21:51;;;;;;;10.77;7.20;;;;;;;;;;5065211;28;20125;-59
2021/08/13 01:24:21;;;;;;;10.52;6.57;;;;;;;;;;5066815;28;20036;-60
2021/08/13 01:26:54;;;;;;;9.18;6.70;;;;;;;;;;5066097;28;20024;-59
2021/08/13 01:29:46;;;;;;;8.18;5.90;;;;;;;;;;5066323;28;20024;-59
2021/08/13 01:32:12;;;;;;;8.93;6.18;;;;;;;;;;5065761;28;20082;-58
2021/08/13 01:34:44;;;;;;;10.07;7.45;;;;;;;;;;5066265;28;20032;-60
2021/08/13 01:37:10;;;;;;;9.35;6.50;;;;;;;;;;5071708;28;20024;-60
2021/08/13 01:39:36;;;;;;;10.90;7.05;;;;;;;;;;5066246;28;20103;-56
2021/08/13 01:42:03;;;;;;;8.75;6.47;;;;;;;;;;5064215;28;20814;-59
2021/08/13 01:44:29;;;;;;;9.07;6.47;;;;;;;;;;5061012;28;20127;-58
2021/08/13 01:46:59;;;;;;;9.25;6.57;;;;;;;;;;5066198;28;20104;-59
2021/08/13 01:49:26;;;;;;;9.57;7.25;;;;;;;;;;5066318;28;20486;-59
2021/08/13 01:51:52;;;;;;;10.95;7.10;;;;;;;;;;5065418;28;20027;-59
2021/08/13 01:54:18;;;;;;;9.77;6.65;;;;;;;;;;5065909;28;20115;-58
2021/08/13 01:56:45;;;;;;;9.88;7.07;;;;;;;;;;5065368;28;20123;-58
2021/08/13 01:59:11;;;;;;;11.52;6.22;;;;;;;;;;5065893;28;20033;-55
2021/08/13 02:01:37;;;;;;;9.65;7.07;;;;;;;;;;5065023;28;20525;-58
2021/08/13 02:04:04;;;;;;;10.40;6.55;;;;;;;;;;5064577;28;20056;-56
2021/08/13 02:06:31;;;;;;;10.70;6.93;;;;;;;;;;5065863;28;20043;-57
2021/08/13 02:08:57;;;;;;;12.00;6.93;;;;;;;;;;5063664;28;20005;-61
2021/08/13 02:11:25;;;;;;;11.20;6.63;;;;;;;;;;5065139;28;20044;-60
2021/08/13 02:13:50;;;;;;;11.13;6.60;;;;;;;;;;5048955;28;20037;-59
2021/08/13 02:16:21;;;;;;;11.15;7.50;;;;;;;;;;5045557;28;20024;-60
2021/08/13 02:18:54;;;;;;;10.57;7.28;;;;;;;;;;5044688;28;20025;-59
2021/08/13 02:21:20;;;;;;;8.85;6.45;;;;;;;;;;5083294;28;20689;-59
2021/08/13 02:23:46;;;;;;;11.60;7.18;;;;;;;;;;5084874;28;20123;-58
2021/08/13 02:26:11;;;;;;;9.10;7.05;;;;;;;;;;5079585;28;20108;-61
2021/08/13 02:28:37;;;;;;;10.05;6.90;;;;;;;;;;5064539;28;20033;-58
2021/08/13 02:31:02;;;;;;;9.63;6.82;;;;;;;;;;5064329;28;20028;-59
2021/08/13 02:33:28;;;;;;;10.55;7.10;;;;;;;;;;5059398;28;20491;-59
2021/08/13 02:36:01;;;;;;;9.98;7.22;;;;;;;;;;5064771;28;20028;-59
2021/08/13 02:38:33;;;;;;;10.20;7.00;;;;;;;;;;5070709;28;20043;-59
2021/08/13 02:41:03;;;;;;;10.32;6.90;;;;;;;;;;5064890;28;20067;-58
2021/08/13 02:43:33;;;;;;;9.73;7.00;;;;;;;;;;5050946;28;20045;-58
2021/08/13 02:46:00;;;;;;;10.38;6.95;;;;;;;;;;5044382;28;20028;-61
2021/08/13 02:48:27;;;;;;;14.40;7.75;;;;;;;;;;5044609;28;20441;-59
2021/08/13 02:50:55;;;;;;;11.75;7.80;;;;;;;;;;5044313;28;20044;-58
2021/08/13 02:53:22;;;;;;;9.15;7.10;;;;;;;;;;5044645;28;20025;-61
2021/08/13 02:56:04;;;;;;;9.98;7.00;;;;;;;;;;5043725;28;20056;-61
2021/08/13 02:58:54;;;;;;;12.65;7.70;;;;;;;;;;5069444;28;20028;-61
2021/08/13 03:01:23;;;;;;;10.50;7.30;;;;;;;;;;5063927;28;20800;-60
2021/08/13 03:03:50;;;;;;;10.90;7.57;;;;;;;;;;5063655;28;20724;-58
2021/08/13 03:06:18;;;;;;;10.82;7.63;;;;;;;;;;5064771;28;20383;-59
2021/08/13 03:08:48;;;;;;;11.45;7.50;;;;;;;;;;5072087;28;20503;-58
2021/08/13 03:11:16;;;;;;;11.50;6.82;;;;;;;;;;5063598;28;20038;-59
2021/08/13 03:13:43;;;;;;;9.00;6.88;;;;;;;;;;5049125;28;20036;-60
2021/08/13 03:16:10;;;;;;;12.63;7.55;;;;;;;;;;5044506;28;20135;-59
2021/08/13 03:18:36;;;;;;;12.35;7.65;;;;;;;;;;5044524;28;20098;-60
2021/08/13 03:21:02;;;;;;;11.82;7.65;;;;;;;;;;5069995;28;20372;-59
2021/08/13 03:23:27;;;;;;;16.17;7.38;;;;;;;;;;5062701;28;20020;-60
2021/08/13 03:25:53;;;;;;;10.80;6.68;;;;;;;;;;5064436;28;20082;-59
2021/08/13 03:28:18;;;;;;;9.88;7.35;;;;;;;;;;5064491;28;20615;-59
2021/08/13 03:30:45;;;;;;;10.02;7.15;;;;;;;;;;5064266;28;20025;-58
2021/08/13 03:33:15;;;;;;;11.45;6.80;;;;;;;;;;5064171;28;20103;-53
2021/08/13 03:35:41;;;;;;;9.63;7.32;;;;;;;;;;5064177;28;20036;-57
2021/08/13 03:38:07;;;;;;;9.98;7.32;;;;;;;;;;5070153;28;20547;-58
2021/08/13 03:40:33;;;;;;;11.25;7.53;;;;;;;;;;5063977;28;20021;-58
2021/08/13 03:42:59;;;;;;;12.48;7.93;;;;;;;;;;5054665;28;20055;-59
2021/08/13 03:45:24;;;;;;;11.60;7.30;;;;;;;;;;5044153;28;20028;-57
2021/08/13 03:47:49;;;;;;;10.93;7.00;;;;;;;;;;5064828;28;20062;-60
2021/08/13 03:50:15;;;;;;;10.40;7.85;;;;;;;;;;5063811;28;20016;-58
2021/08/13 03:52:40;;;;;;;14.07;8.00;;;;;;;;;;5064155;28;20123;-58
2021/08/13 03:55:06;;;;;;;11.20;8.23;;;;;;;;;;5064435;28;20053;-60
2021/08/13 03:57:33;;;;;;;12.52;7.78;;;;;;;;;;5063679;28;20149;-59
2021/08/13 03:59:58;;;;;;;9.88;7.65;;;;;;;;;;5064290;28;20021;-60
2021/08/13 04:02:23;;;;;;;12.32;7.93;;;;;;;;;;5063515;28;20055;-59
2021/08/13 04:04:49;;;;;;;15.02;8.70;;;;;;;;;;5063992;28;20020;-59
2021/08/13 04:07:14;;;;;;;12.57;8.45;;;;;;;;;;5064185;28;20024;-60
2021/08/13 04:09:39;;;;;;;12.10;8.70;;;;;;;;;;5054821;28;20056;-60
2021/08/13 04:12:05;;;;;;;10.40;8.40;;;;;;;;;;5060568;28;20035;-59
2021/08/13 04:14:31;;;;;;;12.30;7.70;;;;;;;;;;5063777;28;20028;-60
2021/08/13 04:16:56;;;;;;;11.43;7.28;;;;;;;;;;5063751;28;20048;-60
2021/08/13 04:19:22;;;;;;;11.35;7.35;;;;;;;;;;5067619;28;20104;-59
2021/08/13 04:21:47;;;;;;;11.38;7.50;;;;;;;;;;5083641;28;20063;-55
2021/08/13 04:24:12;;;;;;;11.82;7.20;;;;;;;;;;5084070;28;20451;-60
2021/08/13 04:26:38;;;;;;;12.20;8.15;;;;;;;;;;5082615;28;20138;-55
2021/08/13 04:29:03;;;;;;;13.15;8.40;;;;;;;;;;5079920;28;20024;-59
2021/08/13 04:31:29;;;;;;;10.98;7.75;;;;;;;;;;5061957;28;20093;-57
2021/08/13 04:33:54;;;;;;;12.40;8.07;;;;;;;;;;5062401;28;20733;-59
2021/08/13 04:36:20;;;;;;;11.70;7.55;;;;;;;;;;5061132;28;20029;-56
2021/08/13 04:38:45;;;;;;;10.43;7.30;;;;;;;;;;5066256;28;20036;-59
2021/08/13 04:41:10;;;;;;;10.95;6.97;;;;;;;;;;5061975;28;20467;-60
2021/08/13 04:43:36;;;;;;;11.43;8.23;;;;;;;;;;5049216;28;20029;-58
2021/08/13 04:46:01;;;;;;;10.95;7.60;;;;;;;;;;5043084;28;20538;-56
2021/08/13 04:48:26;;;;;;;13.45;6.97;;;;;;;;;;5046776;28;20028;-54
2021/08/13 04:50:52;;;;;;;13.98;7.07;;;;;;;;;;5046738;28;20029;-58
2021/08/13 04:53:17;;;;;;;8.95;6.45;;;;;;;;;;5047202;28;20403;-60
2021/08/13 04:55:42;;;;;;;11.70;7.28;;;;;;;;;;5067185;28;20048;-57
2021/08/13 04:58:08;;;;;;;9.68;7.47;;;;;;;;;;5066546;28;20024;-59
2021/08/13 05:00:34;;;;;;;12.70;7.85;;;;;;;;;;5063663;28;20024;-58
2021/08/13 05:03:04;;;;;;;10.20;7.82;;;;;;;;;;5066185;28;20033;-59
2021/08/13 05:05:29;;;;;;;14.18;7.82;;;;;;;;;;5067099;28;20028;-59
2021/08/13 05:07:54;;;;;;;10.55;6.93;;;;;;;;;;5072882;28;20040;-56
2021/08/13 05:10:20;;;;;;;10.13;7.45;;;;;;;;;;5066152;28;20035;-61
2021/08/13 05:12:45;;;;;;;9.85;6.47;;;;;;;;;;5061150;28;20583;-57
2021/08/13 05:15:12;;;;;;;9.82;7.05;;;;;;;;;;5047061;28;20035;-55
2021/08/13 05:17:38;;;;;;;11.85;8.20;;;;;;;;;;5047098;28;20142;-61
2021/08/13 05:20:05;;;;;;;10.77;7.40;;;;;;;;;;5065380;28;20021;-55
2021/08/13 05:22:34;;;;;;;9.05;6.47;;;;;;;;;;5075652;28;20110;-55
2021/08/13 05:25:01;;;;;;;11.30;6.57;;;;;;;;;;5086094;28;20085;-53
2021/08/13 05:27:27;;;;;;;11.90;7.60;;;;;;;;;;5064775;28;20459;-51
2021/08/13 05:29:52;;;;;;;11.60;6.90;;;;;;;;;;5066235;28;20581;-53
2021/08/13 05:32:17;;;;;;;10.32;6.47;;;;;;;;;;5065870;28;20024;-48
2021/08/13 05:34:43;;;;;;;9.75;7.18;;;;;;;;;;5065991;28;20021;-54
2021/08/13 05:37:08;;;;;;;10.68;7.55;;;;;;;;;;5066213;28;20537;-50
2021/08/13 05:39:33;;;;;;;9.88;6.47;;;;;;;;;;5085184;28;20031;-50
2021/08/13 05:41:58;;;;;;;18.75;7.18;;;;;;;;;;5084932;28;20500;-54
2021/08/13 05:44:24;;;;;;;9.45;7.18;;;;;;;;;;5065871;28;20104;-53
2021/08/13 05:46:49;;;;;;;9.70;6.15;;;;;;;;;;5065907;28;20032;-52
2021/08/13 05:49:14;;;;;;;8.43;6.70;;;;;;;;;;5050569;28;20423;-53
2021/08/13 05:51:40;;;;;;;8.18;6.05;;;;;;;;;;5053924;28;20117;-51
2021/08/13 05:54:05;;;;;;;8.93;6.95;;;;;;;;;;5065818;28;20541;-53
2021/08/13 05:56:30;;;;;;;8.68;6.45;;;;;;;;;;5066036;28;20143;-50
2021/08/13 05:59:00;;;;;;;10.32;6.78;;;;;;;;;;5065467;28;20031;-54
2021/08/13 06:01:26;;;;;;;10.00;6.55;;;;;;;;;;5065634;28;20384;-52
2021/08/13 06:03:51;;;;;;;12.18;6.70;;;;;;;;;;5064940;28;20419;-53
2021/08/13 06:06:16;;;;;;;11.05;6.82;;;;;;;;;;5066042;28;20032;-52
2021/08/13 06:08:42;;;;;;;9.20;6.15;;;;;;;;;;5074826;28;20567;-52
2021/08/13 06:11:07;;;;;;;9.70;6.70;;;;;;;;;;5065386;28;20387;-53
2021/08/13 06:13:32;;;;;;;9.30;6.43;;;;;;;;;;5051028;28;20052;-54
2021/08/13 06:15:58;;;;;;;10.25;6.57;;;;;;;;;;5047511;28;20023;-52
2021/08/13 06:18:23;;;;;;;8.93;6.40;;;;;;;;;;5065794;28;20029;-50
2021/08/13 06:20:49;;;;;;;8.68;6.47;;;;;;;;;;5080628;28;20107;-53
2021/08/13 06:23:14;;;;;;;10.02;6.65;;;;;;;;;;5084922;28;20043;-54
2021/08/13 06:25:39;;;;;;;9.93;7.20;;;;;;;;;;5085507;28;20027;-53
2021/08/13 06:28:05;;;;;;;8.73;6.25;;;;;;;;;;5085174;28;20496;-53
2021/08/13 06:30:30;;;;;;;9.98;6.95;;;;;;;;;;5085254;28;20538;-53
2021/08/13 06:32:56;;;;;;;10.43;6.85;;;;;;;;;;5060052;28;20069;-54
2021/08/13 06:35:21;;;;;;;9.27;6.28;;;;;;;;;;5064599;28;20032;-49
2021/08/13 06:37:51;;;;;;;8.38;6.38;;;;;;;;;;5068843;28;20020;-54
2021/08/13 06:40:18;;;;;;;11.23;6.80;;;;;;;;;;5074348;28;20055;-53
2021/08/13 06:42:43;;;;;;;8.65;6.93;;;;;;;;;;5069734;28;20028;-52
2021/08/13 06:45:11;;;;;;;8.77;6.50;;;;;;;;;;5072334;28;20032;-53
2021/08/13 06:47:37;;;;;;;9.45;7.13;;;;;;;;;;5061822;28;20458;-52
2021/08/13 06:50:03;;;;;;;9.02;6.95;;;;;;;;;;5043628;28;20031;-55
2021/08/13 06:52:28;;;;;;;11.15;7.03;;;;;;;;;;5043644;28;20053;-50
2021/08/13 06:54:54;;;;;;;10.88;6.78;;;;;;;;;;5044599;28;20060;-50
2021/08/13 06:57:19;;;;;;;10.65;6.22;;;;;;;;;;5044796;28;20047;-56
2021/08/13 06:59:44;;;;;;;8.77;6.65;;;;;;;;;;5062859;28;20190;-55
2021/08/13 07:02:09;;;;;;;10.27;7.00;;;;;;;;;;5063663;28;20052;-52
2021/08/13 07:04:35;;;;;;;9.68;6.55;;;;;;;;;;5064370;28;20410;-52
2021/08/13 07:07:00;;;;;;;11.02;7.18;;;;;;;;;;5060955;28;20036;-51
2021/08/13 07:09:25;;;;;;;9.13;6.57;;;;;;;;;;5064390;28;20107;-52
2021/08/13 07:11:51;;;;;;;11.35;7.05;;;;;;;;;;5064215;28;20111;-56
2021/08/13 07:14:16;;;;;;;8.88;6.25;;;;;;;;;;5064547;28;20032;-55
2021/08/13 07:16:41;;;;;;;9.82;6.70;;;;;;;;;;5064159;28;20503;-55
2021/08/13 07:19:07;;;;;;;8.18;6.28;;;;;;;;;;5066195;28;20020;-53
2021/08/13 07:21:32;;;;;;;8.60;6.03;;;;;;;;;;5084088;28;20024;-52
2021/08/13 07:23:57;;;;;;;9.90;6.57;;;;;;;;;;5084114;28;20111;-54
2021/08/13 07:26:23;;;;;;;8.88;6.07;;;;;;;;;;5084969;28;20027;-51
2021/08/13 07:28:48;;;;;;;7.82;6.10;;;;;;;;;;5084364;28;20044;-57
2021/08/13 07:31:13;;;;;;;8.32;5.97;;;;;;;;;;5072448;28;20031;-50
2021/08/13 07:33:39;;;;;;;7.93;5.97;;;;;;;;;;5063861;28;20457;-51
2021/08/13 07:36:05;;;;;;;9.13;6.15;;;;;;;;;;5063996;28;20044;-51
2021/08/13 07:38:34;;;;;;;8.75;5.88;;;;;;;;;;5074368;28;20123;-58
2021/08/13 07:41:00;;;;;;;8.48;6.22;;;;;;;;;;5068177;28;20020;-49
2021/08/13 07:43:25;;;;;;;10.50;6.53;;;;;;;;;;5061096;28;20032;-48
2021/08/13 07:45:51;;;;;;;8.48;6.10;;;;;;;;;;5064790;28;20033;-53
2021/08/13 07:48:16;;;;;;;9.48;6.43;;;;;;;;;;5063655;28;20533;-53
2021/08/13 07:50:41;;;;;;;9.63;6.35;;;;;;;;;;5062459;28;20033;-53
2021/08/13 07:53:07;;;;;;;10.60;6.90;;;;;;;;;;5063589;28;20024;-52
2021/08/13 07:55:32;;;;;;;8.35;6.15;;;;;;;;;;5061216;28;20052;-54
2021/08/13 07:57:57;;;;;;;7.95;5.80;;;;;;;;;;5060625;28;20379;-52
2021/08/13 08:00:23;;;;;;;8.55;5.82;;;;;;;;;;5057661;28;20094;-55
2021/08/13 08:02:48;;;;;;;11.82;6.60;;;;;;;;;;5061046;28;20402;-53
2021/08/13 08:05:13;;;;;;;11.40;7.38;;;;;;;;;;5057261;28;20036;-54
2021/08/13 08:07:39;;;;;;;10.60;6.55;;;;;;;;;;5058720;28;20166;-53
2021/08/13 08:10:05;;;;;;;15.43;6.53;;;;;;;;;;5063278;28;20407;-51
2021/08/13 08:12:30;;;;;;;11.43;6.20;;;;;;;;;;5056539;28;20039;-55
2021/08/13 08:14:55;;;;;;;12.40;6.18;;;;;;;;;;5051353;28;20225;-53
2021/08/13 08:17:20;;;;;;;9.75;6.35;;;;;;;;;;5061193;28;20055;-47
2021/08/13 08:19:46;;;;;;;12.15;6.68;;;;;;;;;;5065914;28;20020;-55
2021/08/13 08:22:11;;;;;;;11.52;7.05;;;;;;;;;;5056267;28;20028;-52
2021/08/13 08:24:37;;;;;;;10.25;6.50;;;;;;;;;;5062688;28;20032;-53
2021/08/13 08:27:03;;;;;;;10.80;6.55;;;;;;;;;;5067724;28;20020;-53
2021/08/13 08:29:28;;;;;;;10.40;6.57;;;;;;;;;;5066552;28;20431;-52
2021/08/13 08:31:53;;;;;;;13.05;6.75;;;;;;;;;;5061393;28;20050;-51
2021/08/13 08:34:18;;;;;;;9.77;5.60;;;;;;;;;;5067577;28;20063;-49
2021/08/13 08:36:44;;;;;;;10.48;7.07;;;;;;;;;;5066647;28;20024;-52
2021/08/13 08:39:09;;;;;;;11.20;6.13;;;;;;;;;;5083194;28;20049;-53
2021/08/13 08:41:36;;;;;;;10.13;6.90;;;;;;;;;;5072864;28;20534;-51
2021/08/13 08:44:01;;;;;;;13.93;6.65;;;;;;;;;;5062600;28;20033;-54
2021/08/13 08:46:28;;;;;;;13.52;7.18;;;;;;;;;;5055698;28;20037;-47
2021/08/13 08:48:54;;;;;;;11.27;6.97;;;;;;;;;;5064862;28;20095;-48
2021/08/13 08:51:20;;;;;;;10.50;6.70;;;;;;;;;;5061029;28;20043;-54
2021/08/13 08:53:50;;;;;;;10.68;6.40;;;;;;;;;;5062975;28;20059;-50
2021/08/13 08:56:17;;;;;;;8.30;6.65;;;;;;;;;;5066896;28;20399;-48
2021/08/13 08:58:45;;;;;;;9.50;6.72;;;;;;;;;;5066275;28;20028;-57
2021/08/13 09:01:12;;;;;;;12.60;6.95;;;;;;;;;;5065108;28;20029;-53
2021/08/13 09:03:38;;;;;;;10.80;7.25;;;;;;;;;;5067447;28;20047;-53
2021/08/13 09:06:04;;;;;;;10.00;6.38;;;;;;;;;;5064082;28;20107;-49
2021/08/13 09:08:30;;;;;;;11.85;7.32;;;;;;;;;;5067997;28;20737;-50
2021/08/13 09:10:56;;;;;;;10.10;7.00;;;;;;;;;;5061209;28;20024;-52
2021/08/13 09:13:23;;;;;;;9.90;7.22;;;;;;;;;;5065510;28;20086;-50
2021/08/13 09:15:48;;;;;;;11.02;7.30;;;;;;;;;;5065832;28;20108;-49
2021/08/13 09:18:19;;;;;;;10.35;6.50;;;;;;;;;;5066303;28;20210;-51
2021/08/13 09:20:45;;;;;;;;;;;;;;;;;;5066860;28;20029;-55
2021/08/13 09:23:11;;;;;;;10.40;6.33;;;;;;;;;;5064935;28;19989;-52
2021/08/13 09:25:36;;;;;;;11.50;6.80;;;;;;;;;;5059501;28;20271;-50
2021/08/13 09:28:02;;;;;;;9.25;6.32;;;;;;;;;;5066418;28;20107;-50
2021/08/13 09:30:28;;;;;;;11.65;7.28;;;;;;;;;;5064038;28;20017;-53
2021/08/13 09:32:59;;;;;;;9.30;6.38;;;;;;;;;;5065743;28;20387;-54
2021/08/13 09:35:35;;;;;;;;;;;;;;;;;;5063816;28;20059;-50
2021/08/13 09:38:02;;;;;;;10.02;7.20;;;;;;;;;;5065687;28;19919;-52
2021/08/13 09:40:37;;;;;;;9.60;6.80;;;;;;;;;;5065870;28;20047;-50
2021/08/13 09:43:02;;;;;;;11.15;6.57;;;;;;;;;;5065746;28;20035;-56
2021/08/13 09:45:28;;;;;;;11.05;7.07;;;;;;;;;;5061980;28;20099;-56
2021/08/13 09:47:53;;;;;;;11.50;6.90;;;;;;;;;;5056446;28;20053;-50
2021/08/13 09:50:36;;;;;;;10.32;6.82;;;;;;;;;;5062587;28;20024;-50
2021/08/13 09:53:13;;;;;;;14.27;7.60;;;;;;;;;;5060600;28;20020;-52
2021/08/13 09:55:39;;;;;;;10.85;6.70;;;;;;;;;;5057185;28;20111;-50
2021/08/13 09:58:07;;;;;;;13.98;6.93;;;;;;;;;;5065145;28;20068;-52
2021/08/13 10:00:43;;;;;;;10.93;7.00;;;;;;;;;;5065171;28;20075;-53
2021/08/13 10:03:09;;;;;;;11.30;7.63;;;;;;;;;;5064972;28;20302;-52
2021/08/13 10:05:34;;;;;;;10.18;7.00;;;;;;;;;;5064659;28;20030;-50
2021/08/13 10:08:02;;;;;;;10.95;6.68;;;;;;;;;;5071542;28;20651;-51
2021/08/13 10:10:46;;;;;;;12.27;7.00;;;;;;;;;;5068420;28;20469;-53
2021/08/13 10:13:12;;;;;;;11.75;7.60;;;;;;;;;;5054177;28;20083;-50
2021/08/13 10:15:39;;;;;;;11.20;6.95;;;;;;;;;;5045626;28;20036;-53
2021/08/13 10:18:07;;;;;;;11.55;7.45;;;;;;;;;;5045509;28;20122;-56
2021/08/13 10:20:35;;;;;;;9.85;6.90;;;;;;;;;;5066989;28;20294;-53
2021/08/13 10:23:01;;;;;;;12.45;7.35;;;;;;;;;;5064576;28;20071;-50
2021/08/13 10:25:26;;;;;;;10.70;7.22;;;;;;;;;;5065395;28;20407;-53
2021/08/13 10:27:55;;;;;;;10.45;7.60;;;;;;;;;;5065442;28;20035;-50
2021/08/13 10:30:22;;;;;;;10.35;7.10;;;;;;;;;;5064860;28;20104;-51
2021/08/13 10:32:51;;;;;;;10.88;6.78;;;;;;;;;;5064874;28;20576;-50
2021/08/13 10:35:16;;;;;;;9.45;7.07;;;;;;;;;;5056139;28;20027;-52
2021/08/13 10:37:42;;;;;;;9.15;7.10;;;;;;;;;;5066325;28;20036;-49
2021/08/13 10:40:09;;;;;;;9.50;7.35;;;;;;;;;;5060719;28;20561;-50
2021/08/13 10:42:38;;;;;;;12.18;7.10;;;;;;;;;;5063126;28;20737;-49
2021/08/13 10:45:09;;;;;;;10.52;7.40;;;;;;;;;;5063599;28;20032;-51
2021/08/13 10:47:39;;;;;;;11.73;6.88;;;;;;;;;;5066432;28;20028;-46
2021/08/13 10:50:06;;;;;;;9.30;6.70;;;;;;;;;;5053654;28;20083;-49
2021/08/13 10:52:37;;;;;;;16.17;7.20;;;;;;;;;;5058084;28;20248;-49
2021/08/13 10:55:04;;;;;;;12.02;7.05;;;;;;;;;;5064604;28;20024;-52
2021/08/13 10:57:47;;;;;;;16.55;7.82;;;;;;;;;;5064920;28;20020;-49
2021/08/13 11:00:13;;;;;;;12.23;6.85;;;;;;;;;;5044755;28;20029;-52
2021/08/13 11:02:38;;;;;;;11.95;7.32;;;;;;;;;;5060647;28;20021;-53
2021/08/13 11:05:04;;;;;;;10.18;6.95;;;;;;;;;;5063016;28;20032;-52
2021/08/13 11:08:00;;;;;;;10.82;6.72;;;;;;;;;;5066022;28;20032;-50
2021/08/13 11:10:38;;;;;;;14.25;6.95;;;;;;;;;;5063904;28;20206;-50
2021/08/13 11:13:10;;;;;;;8.70;7.07;;;;;;;;;;5058335;28;20032;-51
2021/08/13 11:15:35;;;;;;;14.38;8.43;;;;;;;;;;5064202;28;20036;-53
2021/08/13 11:18:01;;;;;;;12.02;7.35;;;;;;;;;;5061879;28;20032;-50
2021/08/13 11:20:43;;;;;;;13.25;8.07;;;;;;;;;;5063141;28;20341;-54
2021/08/13 11:23:08;;;;;;;10.73;7.25;;;;;;;;;;5064842;28;20028;-53
2021/08/13 11:25:50;;;;;;;10.15;7.22;;;;;;;;;;5064606;28;20024;-49
2021/08/13 11:28:27;;;;;;;9.77;6.82;;;;;;;;;;5064572;28;20027;-47
2021/08/13 11:30:58;;;;;;;11.40;7.25;;;;;;;;;;5064478;28;20016;-55
2021/08/13 11:33:26;;;;;;;12.47;7.03;;;;;;;;;;5064152;28;20052;-52
2021/08/13 11:35:53;;;;;;;11.60;7.78;;;;;;;;;;5063085;28;20461;-55
2021/08/13 11:38:43;;;;;;;8.85;6.55;;;;;;;;;;5072754;28;20387;-48
2021/08/13 11:41:20;;;;;;;9.82;7.45;;;;;;;;;;5084776;28;20154;-51
2021/08/13 11:43:48;;;;;;;10.48;7.32;;;;;;;;;;5067910;28;20042;-49
2021/08/13 11:46:43;;;;;;;10.35;7.50;;;;;;;;;;5064679;28;20078;-50
2021/08/13 11:49:08;;;;;;;9.48;7.07;;;;;;;;;;5045262;28;20369;-47
2021/08/13 11:51:36;;;;;;;9.77;6.82;;;;;;;;;;5051373;28;20058;-48
2021/08/13 11:54:02;;;;;;;11.68;7.30;;;;;;;;;;5063865;28;20107;-52
2021/08/13 11:56:30;;;;;;;9.77;6.70;;;;;;;;;;5058490;28;20112;-50
2021/08/13 11:59:04;;;;;;;9.52;6.82;;;;;;;;;;5066794;28;20078;-54
2021/08/13 12:01:45;;;;;;;9.10;6.82;;;;;;;;;;5058186;28;20090;-51
2021/08/13 12:04:20;;;;;;;;;;;;;;;;;;5068086;28;20020;-47
2021/08/13 12:07:08;;;;;;;10.30;7.00;;;;;;;;;;5051168;28;19946;-51
2021/08/13 12:09:33;;;;;;;11.45;6.90;;;;;;;;;;5062040;28;20132;-53
2021/08/13 12:12:00;;;;;;;10.25;6.38;;;;;;;;;;5064970;28;20107;-47
2021/08/13 12:14:25;;;;;;;10.27;6.38;;;;;;;;;;5066451;28;20119;-51
2021/08/13 12:16:55;;;;;;;8.80;6.93;;;;;;;;;;5066259;28;20218;-46
2021/08/13 12:19:22;;;;;;;8.52;6.82;;;;;;;;;;5059619;28;20387;-52
2021/08/13 12:21:55;;;;;;;9.25;7.00;;;;;;;;;;5060363;28;20032;-49
2021/08/13 12:24:31;;;;;;;12.40;6.70;;;;;;;;;;5064705;28;20109;-55
2021/08/13 12:26:57;;;;;;;10.13;6.32;;;;;;;;;;5059765;28;20574;-53
2021/08/13 12:29:30;;;;;;;10.63;7.07;;;;;;;;;;5065580;28;20386;-55
2021/08/13 12:31:58;;;;;;;9.75;6.90;;;;;;;;;;5067028;28;20016;-51
2021/08/13 12:34:25;;;;;;;8.48;6.43;;;;;;;;;;5062557;28;20031;-47
2021/08/13 12:37:03;;;;;;;12.18;7.07;;;;;;;;;;5066589;28;20086;-53
2021/08/13 12:39:30;;;;;;;8.75;6.25;;;;;;;;;;5064209;28;20081;-51
2021/08/13 12:41:56;;;;;;;15.25;5.82;;;;;;;;;;5061997;28;20067;-48
2021/08/13 12:44:21;;;;;;;9.20;6.15;;;;;;;;;;5061142;28;20060;-51
2021/08/13 12:46:47;;;;;;;9.60;6.55;;;;;;;;;;5058717;28;20485;-54
2021/08/13 12:49:14;;;;;;;8.45;5.78;;;;;;;;;;5060343;28;20052;-49
2021/08/13 12:51:40;;;;;;;10.75;6.80;;;;;;;;;;5054652;28;20510;-48
2021/08/13 12:54:34;;;;;;;10.50;6.00;;;;;;;;;;5067900;28;20024;-54
2021/08/13 12:57:01;;;;;;;10.57;6.82;;;;;;;;;;5047093;28;20074;-47
2021/08/13 12:59:36;;;;;;;9.85;6.90;;;;;;;;;;5063156;28;20048;-51
2021/08/13 13:02:03;;;;;;;12.50;6.50;;;;;;;;;;5066894;28;20857;-50
2021/08/13 13:04:38;;;;;;;10.38;6.28;;;;;;;;;;5067189;28;20106;-50
2021/08/13 13:07:05;;;;;;;8.95;6.40;;;;;;;;;;5063107;28;20016;-54
2021/08/13 13:09:36;;;;;;;11.38;6.68;;;;;;;;;;5066213;28;20479;-49
2021/08/13 13:12:21;;;;;;;9.60;5.93;;;;;;;;;;5066712;28;20074;-51
2021/08/13 13:14:49;;;;;;;8.90;6.35;;;;;;;;;;5059705;28;20032;-54
2021/08/13 13:17:16;;;;;;;10.70;5.85;;;;;;;;;;5065451;28;20099;-48
2021/08/13 13:19:42;;;;;;;9.65;6.38;;;;;;;;;;5080931;28;20096;-52
2021/08/13 13:22:37;;;;;;;12.68;7.05;;;;;;;;;;5066667;28;20070;-53
2021/08/13 13:25:17;;;;;;;12.73;6.18;;;;;;;;;;5061087;28;20036;-51
2021/08/13 13:28:00;;;;;;;9.02;5.82;;;;;;;;;;5057596;28;20033;-51
2021/08/13 13:30:44;;;;;;;10.18;6.18;;;;;;;;;;5066754;28;20150;-50
2021/08/13 13:33:27;;;;;;;9.00;6.18;;;;;;;;;;5066542;28;20273;-52
2021/08/13 13:36:01;;;;;;;11.68;5.85;;;;;;;;;;5066123;28;20116;-52
2021/08/13 13:38:29;;;;;;;12.10;6.47;;;;;;;;;;5066037;28;20039;-49
2021/08/13 13:40:55;;;;;;;9.23;6.22;;;;;;;;;;5063170;28;20130;-51
2021/08/13 13:43:20;;;;;;;9.93;5.78;;;;;;;;;;5067034;28;20495;-53
2021/08/13 13:45:46;;;;;;;12.13;6.57;;;;;;;;;;5065917;28;20024;-53
2021/08/13 13:48:11;;;;;;;9.07;5.88;;;;;;;;;;5066085;28;20415;-50
2021/08/13 13:50:37;;;;;;;8.60;6.13;;;;;;;;;;5066032;28;20520;-51
2021/08/13 13:53:05;;;;;;;7.15;5.45;;;;;;;;;;5066227;28;20021;-53
2021/08/13 13:55:30;;;;;;;10.70;6.40;;;;;;;;;;5066559;28;20065;-51
2021/08/13 13:57:55;;;;;;;10.95;6.85;;;;;;;;;;5065453;28;20020;-49
2021/08/13 14:00:21;;;;;;;8.57;6.30;;;;;;;;;;5066440;28;20103;-52
2021/08/13 14:02:47;;;;;;;9.30;6.40;;;;;;;;;;5064137;28;20451;-54
2021/08/13 14:05:14;;;;;;;10.30;6.30;;;;;;;;;;5066131;28;20032;-51
2021/08/13 14:07:41;;;;;;;9.25;5.50;;;;;;;;;;5064165;28;20028;-52
2021/08/13 14:10:10;;;;;;;11.82;6.38;;;;;;;;;;5065734;28;20692;-52
2021/08/13 14:12:37;;;;;;;8.45;6.20;;;;;;;;;;5065402;28;20754;-50
2021/08/13 14:15:07;;;;;;;9.82;6.10;;;;;;;;;;5065360;28;20445;-54
2021/08/13 14:17:32;;;;;;;7.32;5.80;;;;;;;;;;5065676;28;20112;-51
2021/08/13 14:19:58;;;;;;;9.20;6.32;;;;;;;;;;5072985;28;20099;-52
2021/08/13 14:22:23;;;;;;;8.77;6.13;;;;;;;;;;5085864;28;20078;-51
2021/08/13 14:24:48;;;;;;;8.77;6.10;;;;;;;;;;5086400;28;20665;-52
2021/08/13 14:27:14;;;;;;;9.32;6.05;;;;;;;;;;5085527;28;20463;-53
2021/08/13 14:29:39;;;;;;;9.48;5.43;;;;;;;;;;5076189;28;20448;-51
2021/08/13 14:32:05;;;;;;;8.07;5.45;;;;;;;;;;5064624;28;20036;-52
2021/08/13 14:34:30;;;;;;;9.23;5.60;;;;;;;;;;5064943;28;20028;-55
2021/08/13 14:36:55;;;;;;;7.70;5.53;;;;;;;;;;5065098;28;20059;-54
2021/08/13 14:39:21;;;;;;;7.70;5.60;;;;;;;;;;5082455;28;20062;-52